sensor_id;sensor_type;location;lat;lon;timestamp;P1;durP1;ratioP1;P2;durP2;ratioP2
81651;SDS011;71061;55.714;37.794;2024-01-10T00:01:34;4.20;;;1.20;;
81651;SDS011;71061;55.714;37.794;2024-01-10T00:03:59;3.22;;;1.30;;
81651;SDS011;71061;55.714;37.794;2024-01-10T00:06:25;4.85;;;1.80;;
81651;SDS011;71061;55.714;37.794;2024-01-10T00:08:51;3.42;;;1.13;;
81651;SDS011;71061;55.714;37.794;2024-01-10T00:11:17;4.68;;;1.63;;
81651;SDS011;71061;55.714;37.794;2024-01-10T00:13:42;5.05;;;1.95;;
81651;SDS011;71061;55.714;37.794;2024-01-10T00:16:08;4.28;;;0.80;;
81651;SDS011;71061;55.714;37.794;2024-01-10T00:18:34;3.42;;;0.90;;
81651;SDS011;71061;55.714;37.794;2024-01-10T00:21:00;4.22;;;1.20;;
81651;SDS011;71061;55.714;37.794;2024-01-10T00:23:26;3.05;;;1.40;;
81651;SDS011;71061;55.714;37.794;2024-01-10T00:25:52;5.00;;;1.58;;
81651;SDS011;71061;55.714;37.794;2024-01-10T00:28:17;2.97;;;1.10;;
81651;SDS011;71061;55.714;37.794;2024-01-10T00:30:44;3.53;;;0.82;;
81651;SDS011;71061;55.714;37.794;2024-01-10T00:33:11;3.55;;;1.40;;
81651;SDS011;71061;55.714;37.794;2024-01-10T00:35:36;3.45;;;1.30;;
81651;SDS011;71061;55.714;37.794;2024-01-10T00:38:02;3.70;;;1.70;;
81651;SDS011;71061;55.714;37.794;2024-01-10T00:40:28;3.25;;;1.17;;
81651;SDS011;71061;55.714;37.794;2024-01-10T00:42:54;3.78;;;1.00;;
81651;SDS011;71061;55.714;37.794;2024-01-10T00:45:20;4.00;;;1.10;;
81651;SDS011;71061;55.714;37.794;2024-01-10T00:47:48;2.40;;;0.80;;
81651;SDS011;71061;55.714;37.794;2024-01-10T00:50:14;4.25;;;1.42;;
81651;SDS011;71061;55.714;37.794;2024-01-10T00:52:39;3.53;;;1.48;;
81651;SDS011;71061;55.714;37.794;2024-01-10T00:55:05;5.18;;;1.30;;
81651;SDS011;71061;55.714;37.794;2024-01-10T00:57:31;3.55;;;1.10;;
81651;SDS011;71061;55.714;37.794;2024-01-10T00:59:57;3.35;;;1.20;;
81651;SDS011;71061;55.714;37.794;2024-01-10T01:02:23;4.47;;;1.00;;
81651;SDS011;71061;55.714;37.794;2024-01-10T01:04:49;3.75;;;0.80;;
81651;SDS011;71061;55.714;37.794;2024-01-10T01:07:14;3.88;;;0.85;;
81651;SDS011;71061;55.714;37.794;2024-01-10T01:09:40;2.28;;;0.50;;
81651;SDS011;71061;55.714;37.794;2024-01-10T01:12:06;2.58;;;0.70;;
81651;SDS011;71061;55.714;37.794;2024-01-10T01:14:31;2.88;;;0.70;;
81651;SDS011;71061;55.714;37.794;2024-01-10T01:16:57;3.72;;;0.90;;
81651;SDS011;71061;55.714;37.794;2024-01-10T01:19:23;3.28;;;0.82;;
81651;SDS011;71061;55.714;37.794;2024-01-10T01:21:48;2.90;;;0.77;;
81651;SDS011;71061;55.714;37.794;2024-01-10T01:24:14;2.30;;;0.70;;
81651;SDS011;71061;55.714;37.794;2024-01-10T01:26:40;2.17;;;0.60;;
81651;SDS011;71061;55.714;37.794;2024-01-10T01:29:06;1.70;;;0.65;;
81651;SDS011;71061;55.714;37.794;2024-01-10T01:31:33;2.95;;;0.60;;
81651;SDS011;71061;55.714;37.794;2024-01-10T01:33:59;2.90;;;0.40;;
81651;SDS011;71061;55.714;37.794;2024-01-10T01:36:25;3.30;;;0.70;;
81651;SDS011;71061;55.714;37.794;2024-01-10T01:38:51;2.92;;;0.80;;
81651;SDS011;71061;55.714;37.794;2024-01-10T01:41:16;2.20;;;0.52;;
81651;SDS011;71061;55.714;37.794;2024-01-10T01:43:43;2.78;;;0.57;;
81651;SDS011;71061;55.714;37.794;2024-01-10T01:46:08;2.22;;;0.60;;
81651;SDS011;71061;55.714;37.794;2024-01-10T01:48:34;3.63;;;0.50;;
81651;SDS011;71061;55.714;37.794;2024-01-10T01:51:02;1.48;;;0.50;;
81651;SDS011;71061;55.714;37.794;2024-01-10T01:53:29;1.75;;;0.30;;
81651;SDS011;71061;55.714;37.794;2024-01-10T01:55:55;1.00;;;0.40;;
81651;SDS011;71061;55.714;37.794;2024-01-10T01:58:22;0.77;;;0.20;;
81651;SDS011;71061;55.714;37.794;2024-01-10T02:00:48;1.42;;;0.30;;
81651;SDS011;71061;55.714;37.794;2024-01-10T02:03:14;1.75;;;0.40;;
81651;SDS011;71061;55.714;37.794;2024-01-10T02:05:40;1.52;;;0.32;;
81651;SDS011;71061;55.714;37.794;2024-01-10T02:08:06;2.25;;;0.40;;
81651;SDS011;71061;55.714;37.794;2024-01-10T02:10:31;1.27;;;0.43;;
81651;SDS011;71061;55.714;37.794;2024-01-10T02:12:57;14.40;;;0.98;;
81651;SDS011;71061;55.714;37.794;2024-01-10T02:15:23;1.08;;;0.30;;
81651;SDS011;71061;55.714;37.794;2024-01-10T02:18:09;1.08;;;0.28;;
81651;SDS011;71061;55.714;37.794;2024-01-10T02:20:37;1.10;;;0.20;;
81651;SDS011;71061;55.714;37.794;2024-01-10T02:23:03;1.00;;;0.40;;
81651;SDS011;71061;55.714;37.794;2024-01-10T02:25:29;0.52;;;0.20;;
81651;SDS011;71061;55.714;37.794;2024-01-10T02:27:55;1.20;;;0.30;;
81651;SDS011;71061;55.714;37.794;2024-01-10T02:30:21;0.93;;;0.10;;
81651;SDS011;71061;55.714;37.794;2024-01-10T02:32:47;2.17;;;0.43;;
81651;SDS011;71061;55.714;37.794;2024-01-10T02:35:12;0.68;;;0.20;;
81651;SDS011;71061;55.714;37.794;2024-01-10T02:37:38;0.70;;;0.20;;
81651;SDS011;71061;55.714;37.794;2024-01-10T02:40:04;0.75;;;0.50;;
81651;SDS011;71061;55.714;37.794;2024-01-10T02:42:31;1.20;;;0.60;;
81651;SDS011;71061;55.714;37.794;2024-01-10T02:44:57;3.25;;;0.50;;
81651;SDS011;71061;55.714;37.794;2024-01-10T02:47:23;0.73;;;0.22;;
81651;SDS011;71061;55.714;37.794;2024-01-10T02:49:49;1.80;;;0.30;;
81651;SDS011;71061;55.714;37.794;2024-01-10T02:52:14;0.93;;;0.30;;
81651;SDS011;71061;55.714;37.794;2024-01-10T02:54:40;1.23;;;0.30;;
81651;SDS011;71061;55.714;37.794;2024-01-10T02:57:06;0.90;;;0.30;;
81651;SDS011;71061;55.714;37.794;2024-01-10T02:59:32;2.55;;;0.35;;
81651;SDS011;71061;55.714;37.794;2024-01-10T03:01:58;1.40;;;0.30;;
81651;SDS011;71061;55.714;37.794;2024-01-10T03:04:23;1.95;;;0.52;;
81651;SDS011;71061;55.714;37.794;2024-01-10T03:06:49;1.45;;;0.40;;
81651;SDS011;71061;55.714;37.794;2024-01-10T03:09:15;2.33;;;0.63;;
81651;SDS011;71061;55.714;37.794;2024-01-10T03:11:41;1.65;;;0.43;;
81651;SDS011;71061;55.714;37.794;2024-01-10T03:14:07;2.17;;;0.70;;
81651;SDS011;71061;55.714;37.794;2024-01-10T03:16:34;3.55;;;1.17;;
81651;SDS011;71061;55.714;37.794;2024-01-10T03:19:00;7.15;;;2.22;;
81651;SDS011;71061;55.714;37.794;2024-01-10T03:21:26;7.55;;;2.90;;
81651;SDS011;71061;55.714;37.794;2024-01-10T03:23:53;8.32;;;2.75;;
81651;SDS011;71061;55.714;37.794;2024-01-10T03:26:20;9.05;;;3.72;;
81651;SDS011;71061;55.714;37.794;2024-01-10T03:28:46;8.38;;;3.30;;
81651;SDS011;71061;55.714;37.794;2024-01-10T03:31:11;7.38;;;3.33;;
81651;SDS011;71061;55.714;37.794;2024-01-10T03:33:37;9.75;;;3.80;;
81651;SDS011;71061;55.714;37.794;2024-01-10T03:36:04;8.75;;;4.15;;
81651;SDS011;71061;55.714;37.794;2024-01-10T03:38:31;9.00;;;3.33;;
81651;SDS011;71061;55.714;37.794;2024-01-10T03:40:56;9.55;;;4.28;;
81651;SDS011;71061;55.714;37.794;2024-01-10T03:43:22;8.45;;;3.50;;
81651;SDS011;71061;55.714;37.794;2024-01-10T03:45:48;9.93;;;4.03;;
81651;SDS011;71061;55.714;37.794;2024-01-10T03:48:13;6.05;;;2.65;;
81651;SDS011;71061;55.714;37.794;2024-01-10T03:50:39;8.38;;;4.28;;
81651;SDS011;71061;55.714;37.794;2024-01-10T03:53:05;8.90;;;4.07;;
81651;SDS011;71061;55.714;37.794;2024-01-10T03:55:31;10.15;;;4.18;;
81651;SDS011;71061;55.714;37.794;2024-01-10T03:57:57;9.13;;;3.95;;
81651;SDS011;71061;55.714;37.794;2024-01-10T04:00:23;9.85;;;3.70;;
81651;SDS011;71061;55.714;37.794;2024-01-10T04:02:50;8.80;;;3.47;;
81651;SDS011;71061;55.714;37.794;2024-01-10T04:05:16;8.05;;;4.10;;
81651;SDS011;71061;55.714;37.794;2024-01-10T04:07:42;9.75;;;3.45;;
81651;SDS011;71061;55.714;37.794;2024-01-10T04:10:09;8.10;;;3.78;;
81651;SDS011;71061;55.714;37.794;2024-01-10T04:12:36;7.28;;;3.10;;
81651;SDS011;71061;55.714;37.794;2024-01-10T04:15:03;8.98;;;4.32;;
81651;SDS011;71061;55.714;37.794;2024-01-10T04:17:30;8.93;;;3.60;;
81651;SDS011;71061;55.714;37.794;2024-01-10T04:19:55;8.00;;;3.33;;
81651;SDS011;71061;55.714;37.794;2024-01-10T04:22:23;8.88;;;3.55;;
81651;SDS011;71061;55.714;37.794;2024-01-10T04:24:49;8.98;;;3.95;;
81651;SDS011;71061;55.714;37.794;2024-01-10T04:27:15;8.63;;;3.67;;
81651;SDS011;71061;55.714;37.794;2024-01-10T04:29:41;9.43;;;3.65;;
81651;SDS011;71061;55.714;37.794;2024-01-10T04:32:07;8.48;;;3.88;;
81651;SDS011;71061;55.714;37.794;2024-01-10T04:34:33;8.93;;;3.15;;
81651;SDS011;71061;55.714;37.794;2024-01-10T04:36:58;8.20;;;3.25;;
81651;SDS011;71061;55.714;37.794;2024-01-10T04:39:24;7.97;;;3.50;;
81651;SDS011;71061;55.714;37.794;2024-01-10T04:41:50;7.25;;;2.65;;
81651;SDS011;71061;55.714;37.794;2024-01-10T04:44:15;8.02;;;3.45;;
81651;SDS011;71061;55.714;37.794;2024-01-10T04:46:41;8.93;;;3.28;;
81651;SDS011;71061;55.714;37.794;2024-01-10T04:49:07;9.00;;;2.88;;
81651;SDS011;71061;55.714;37.794;2024-01-10T04:51:33;8.48;;;3.17;;
81651;SDS011;71061;55.714;37.794;2024-01-10T04:53:59;9.82;;;4.47;;
81651;SDS011;71061;55.714;37.794;2024-01-10T04:56:25;6.95;;;2.70;;
81651;SDS011;71061;55.714;37.794;2024-01-10T04:58:51;6.60;;;2.78;;
81651;SDS011;71061;55.714;37.794;2024-01-10T05:01:17;6.20;;;2.80;;
81651;SDS011;71061;55.714;37.794;2024-01-10T05:03:43;8.40;;;2.75;;
81651;SDS011;71061;55.714;37.794;2024-01-10T05:06:09;7.40;;;2.75;;
81651;SDS011;71061;55.714;37.794;2024-01-10T05:08:35;6.63;;;3.17;;
81651;SDS011;71061;55.714;37.794;2024-01-10T05:11:00;6.28;;;2.72;;
81651;SDS011;71061;55.714;37.794;2024-01-10T05:13:26;7.82;;;2.42;;
81651;SDS011;71061;55.714;37.794;2024-01-10T05:15:52;6.40;;;2.85;;
81651;SDS011;71061;55.714;37.794;2024-01-10T05:18:17;7.55;;;3.20;;
81651;SDS011;71061;55.714;37.794;2024-01-10T05:20:44;7.50;;;2.55;;
81651;SDS011;71061;55.714;37.794;2024-01-10T05:23:10;7.90;;;2.90;;
81651;SDS011;71061;55.714;37.794;2024-01-10T05:25:35;9.88;;;3.95;;
81651;SDS011;71061;55.714;37.794;2024-01-10T05:28:01;8.65;;;3.45;;
81651;SDS011;71061;55.714;37.794;2024-01-10T05:30:27;8.43;;;2.97;;
81651;SDS011;71061;55.714;37.794;2024-01-10T05:32:53;7.18;;;3.35;;
81651;SDS011;71061;55.714;37.794;2024-01-10T05:35:19;7.05;;;2.95;;
81651;SDS011;71061;55.714;37.794;2024-01-10T05:37:44;6.70;;;2.60;;
81651;SDS011;71061;55.714;37.794;2024-01-10T05:40:10;10.70;;;3.65;;
81651;SDS011;71061;55.714;37.794;2024-01-10T05:42:36;6.25;;;2.80;;
81651;SDS011;71061;55.714;37.794;2024-01-10T05:45:03;6.60;;;2.45;;
81651;SDS011;71061;55.714;37.794;2024-01-10T05:47:30;6.20;;;2.22;;
81651;SDS011;71061;55.714;37.794;2024-01-10T05:49:56;8.77;;;3.60;;
81651;SDS011;71061;55.714;37.794;2024-01-10T05:52:22;8.18;;;3.08;;
81651;SDS011;71061;55.714;37.794;2024-01-10T05:54:48;7.97;;;2.80;;
81651;SDS011;71061;55.714;37.794;2024-01-10T05:57:15;5.88;;;2.22;;
81651;SDS011;71061;55.714;37.794;2024-01-10T05:59:41;6.32;;;2.97;;
81651;SDS011;71061;55.714;37.794;2024-01-10T06:02:06;7.32;;;3.05;;
81651;SDS011;71061;55.714;37.794;2024-01-10T06:04:32;9.07;;;3.08;;
81651;SDS011;71061;55.714;37.794;2024-01-10T06:06:58;6.05;;;2.63;;
81651;SDS011;71061;55.714;37.794;2024-01-10T06:09:24;6.38;;;3.13;;
81651;SDS011;71061;55.714;37.794;2024-01-10T06:11:50;9.00;;;3.40;;
81651;SDS011;71061;55.714;37.794;2024-01-10T06:14:16;8.88;;;2.90;;
81651;SDS011;71061;55.714;37.794;2024-01-10T06:16:42;8.48;;;3.42;;
81651;SDS011;71061;55.714;37.794;2024-01-10T06:19:09;6.43;;;2.83;;
81651;SDS011;71061;55.714;37.794;2024-01-10T06:21:35;6.30;;;2.58;;
81651;SDS011;71061;55.714;37.794;2024-01-10T06:24:01;6.28;;;2.40;;
81651;SDS011;71061;55.714;37.794;2024-01-10T06:26:27;7.32;;;3.30;;
81651;SDS011;71061;55.714;37.794;2024-01-10T06:28:53;7.45;;;2.17;;
81651;SDS011;71061;55.714;37.794;2024-01-10T06:31:19;8.60;;;3.38;;
81651;SDS011;71061;55.714;37.794;2024-01-10T06:33:45;8.77;;;2.75;;
81651;SDS011;71061;55.714;37.794;2024-01-10T06:36:11;7.72;;;3.33;;
81651;SDS011;71061;55.714;37.794;2024-01-10T06:38:38;7.15;;;3.42;;
81651;SDS011;71061;55.714;37.794;2024-01-10T06:41:08;5.85;;;2.55;;
81651;SDS011;71061;55.714;37.794;2024-01-10T06:43:35;6.18;;;2.33;;
81651;SDS011;71061;55.714;37.794;2024-01-10T06:46:01;6.47;;;3.22;;
81651;SDS011;71061;55.714;37.794;2024-01-10T06:48:28;6.40;;;2.15;;
81651;SDS011;71061;55.714;37.794;2024-01-10T06:50:54;8.18;;;2.47;;
81651;SDS011;71061;55.714;37.794;2024-01-10T06:53:21;8.52;;;2.40;;
81651;SDS011;71061;55.714;37.794;2024-01-10T06:55:47;5.00;;;2.13;;
81651;SDS011;71061;55.714;37.794;2024-01-10T06:58:13;6.50;;;1.88;;
81651;SDS011;71061;55.714;37.794;2024-01-10T07:00:39;4.93;;;2.13;;
81651;SDS011;71061;55.714;37.794;2024-01-10T07:03:05;5.75;;;2.50;;
81651;SDS011;71061;55.714;37.794;2024-01-10T07:05:30;6.18;;;2.33;;
81651;SDS011;71061;55.714;37.794;2024-01-10T07:07:57;7.25;;;2.97;;
81651;SDS011;71061;55.714;37.794;2024-01-10T07:10:23;5.40;;;1.95;;
81651;SDS011;71061;55.714;37.794;2024-01-10T07:12:54;6.40;;;2.22;;
81651;SDS011;71061;55.714;37.794;2024-01-10T07:15:20;7.57;;;2.30;;
81651;SDS011;71061;55.714;37.794;2024-01-10T07:17:46;5.85;;;2.00;;
81651;SDS011;71061;55.714;37.794;2024-01-10T07:20:12;6.75;;;1.67;;
81651;SDS011;71061;55.714;37.794;2024-01-10T07:22:38;9.57;;;3.05;;
81651;SDS011;71061;55.714;37.794;2024-01-10T07:25:07;5.70;;;2.15;;
81651;SDS011;71061;55.714;37.794;2024-01-10T07:27:34;6.68;;;2.47;;
81651;SDS011;71061;55.714;37.794;2024-01-10T07:30:04;5.75;;;1.73;;
81651;SDS011;71061;55.714;37.794;2024-01-10T07:32:40;8.68;;;2.05;;
81651;SDS011;71061;55.714;37.794;2024-01-10T07:35:06;5.85;;;3.25;;
81651;SDS011;71061;55.714;37.794;2024-01-10T07:37:35;7.03;;;2.53;;
81651;SDS011;71061;55.714;37.794;2024-01-10T07:40:02;6.13;;;2.00;;
81651;SDS011;71061;55.714;37.794;2024-01-10T07:42:30;7.13;;;1.85;;
81651;SDS011;71061;55.714;37.794;2024-01-10T07:44:56;7.55;;;2.30;;
81651;SDS011;71061;55.714;37.794;2024-01-10T07:47:22;8.90;;;3.17;;
81651;SDS011;71061;55.714;37.794;2024-01-10T07:49:48;7.68;;;2.08;;
81651;SDS011;71061;55.714;37.794;2024-01-10T07:52:14;6.32;;;2.47;;
81651;SDS011;71061;55.714;37.794;2024-01-10T07:54:41;5.07;;;1.98;;
81651;SDS011;71061;55.714;37.794;2024-01-10T07:57:07;8.40;;;1.73;;
81651;SDS011;71061;55.714;37.794;2024-01-10T07:59:33;6.68;;;2.58;;
81651;SDS011;71061;55.714;37.794;2024-01-10T08:01:59;5.07;;;1.80;;
81651;SDS011;71061;55.714;37.794;2024-01-10T08:04:27;9.60;;;3.08;;
81651;SDS011;71061;55.714;37.794;2024-01-10T08:06:53;6.45;;;2.58;;
81651;SDS011;71061;55.714;37.794;2024-01-10T08:09:19;6.38;;;2.00;;
81651;SDS011;71061;55.714;37.794;2024-01-10T08:11:45;6.88;;;1.73;;
81651;SDS011;71061;55.714;37.794;2024-01-10T08:14:11;8.07;;;2.33;;
81651;SDS011;71061;55.714;37.794;2024-01-10T08:16:38;6.70;;;1.67;;
81651;SDS011;71061;55.714;37.794;2024-01-10T08:19:03;5.22;;;2.30;;
81651;SDS011;71061;55.714;37.794;2024-01-10T08:21:29;7.72;;;2.17;;
81651;SDS011;71061;55.714;37.794;2024-01-10T08:23:55;5.85;;;2.22;;
81651;SDS011;71061;55.714;37.794;2024-01-10T08:26:21;7.22;;;1.85;;
81651;SDS011;71061;55.714;37.794;2024-01-10T08:28:46;4.38;;;1.65;;
81651;SDS011;71061;55.714;37.794;2024-01-10T08:31:16;6.10;;;2.03;;
81651;SDS011;71061;55.714;37.794;2024-01-10T08:33:42;8.13;;;1.85;;
81651;SDS011;71061;55.714;37.794;2024-01-10T08:36:07;6.63;;;2.17;;
81651;SDS011;71061;55.714;37.794;2024-01-10T08:38:35;8.15;;;2.05;;
81651;SDS011;71061;55.714;37.794;2024-01-10T08:41:01;5.75;;;2.53;;
81651;SDS011;71061;55.714;37.794;2024-01-10T08:43:27;5.68;;;1.58;;
81651;SDS011;71061;55.714;37.794;2024-01-10T08:45:53;6.88;;;1.95;;
81651;SDS011;71061;55.714;37.794;2024-01-10T08:48:18;6.57;;;2.25;;
81651;SDS011;71061;55.714;37.794;2024-01-10T08:50:44;5.25;;;1.50;;
81651;SDS011;71061;55.714;37.794;2024-01-10T08:53:10;5.32;;;1.85;;
81651;SDS011;71061;55.714;37.794;2024-01-10T08:55:36;5.63;;;1.85;;
81651;SDS011;71061;55.714;37.794;2024-01-10T08:58:03;7.63;;;2.30;;
81651;SDS011;71061;55.714;37.794;2024-01-10T09:00:29;5.13;;;1.63;;
81651;SDS011;71061;55.714;37.794;2024-01-10T09:02:54;8.07;;;2.00;;
81651;SDS011;71061;55.714;37.794;2024-01-10T09:05:20;6.57;;;2.15;;
81651;SDS011;71061;55.714;37.794;2024-01-10T09:07:47;7.53;;;1.92;;
81651;SDS011;71061;55.714;37.794;2024-01-10T09:10:13;6.13;;;1.60;;
81651;SDS011;71061;55.714;37.794;2024-01-10T09:12:39;4.93;;;1.70;;
81651;SDS011;71061;55.714;37.794;2024-01-10T09:15:08;5.32;;;1.85;;
81651;SDS011;71061;55.714;37.794;2024-01-10T09:17:38;5.35;;;1.60;;
81651;SDS011;71061;55.714;37.794;2024-01-10T09:20:04;5.95;;;1.58;;
81651;SDS011;71061;55.714;37.794;2024-01-10T09:22:30;4.55;;;2.10;;
81651;SDS011;71061;55.714;37.794;2024-01-10T09:24:56;5.65;;;1.92;;
81651;SDS011;71061;55.714;37.794;2024-01-10T09:27:25;6.93;;;1.90;;
81651;SDS011;71061;55.714;37.794;2024-01-10T09:29:50;5.70;;;1.88;;
81651;SDS011;71061;55.714;37.794;2024-01-10T09:32:16;8.18;;;2.55;;
81651;SDS011;71061;55.714;37.794;2024-01-10T09:34:42;5.10;;;2.15;;
81651;SDS011;71061;55.714;37.794;2024-01-10T09:37:07;6.35;;;1.98;;
81651;SDS011;71061;55.714;37.794;2024-01-10T09:39:33;5.75;;;2.72;;
81651;SDS011;71061;55.714;37.794;2024-01-10T09:41:59;9.10;;;2.42;;
81651;SDS011;71061;55.714;37.794;2024-01-10T09:44:25;8.90;;;2.45;;
81651;SDS011;71061;55.714;37.794;2024-01-10T09:46:51;7.60;;;2.60;;
81651;SDS011;71061;55.714;37.794;2024-01-10T09:49:18;8.30;;;2.60;;
81651;SDS011;71061;55.714;37.794;2024-01-10T09:51:48;8.65;;;2.28;;
81651;SDS011;71061;55.714;37.794;2024-01-10T09:54:15;6.63;;;2.08;;
81651;SDS011;71061;55.714;37.794;2024-01-10T09:56:41;6.32;;;2.45;;
81651;SDS011;71061;55.714;37.794;2024-01-10T09:59:07;6.07;;;1.88;;
81651;SDS011;71061;55.714;37.794;2024-01-10T10:01:39;6.55;;;2.47;;
81651;SDS011;71061;55.714;37.794;2024-01-10T10:04:05;7.47;;;2.05;;
81651;SDS011;71061;55.714;37.794;2024-01-10T10:06:33;6.78;;;2.50;;
81651;SDS011;71061;55.714;37.794;2024-01-10T10:08:59;6.70;;;2.47;;
81651;SDS011;71061;55.714;37.794;2024-01-10T10:11:26;10.27;;;2.35;;
81651;SDS011;71061;55.714;37.794;2024-01-10T10:13:51;6.50;;;1.73;;
81651;SDS011;71061;55.714;37.794;2024-01-10T10:16:25;8.68;;;2.80;;
81651;SDS011;71061;55.714;37.794;2024-01-10T10:18:51;7.05;;;2.00;;
81651;SDS011;71061;55.714;37.794;2024-01-10T10:21:23;6.88;;;2.70;;
81651;SDS011;71061;55.714;37.794;2024-01-10T10:23:58;6.32;;;2.10;;
81651;SDS011;71061;55.714;37.794;2024-01-10T10:26:26;9.13;;;3.13;;
81651;SDS011;71061;55.714;37.794;2024-01-10T10:28:52;8.40;;;2.47;;
81651;SDS011;71061;55.714;37.794;2024-01-10T10:31:19;5.47;;;2.67;;
81651;SDS011;71061;55.714;37.794;2024-01-10T10:33:45;6.50;;;2.15;;
81651;SDS011;71061;55.714;37.794;2024-01-10T10:36:13;6.63;;;2.58;;
81651;SDS011;71061;55.714;37.794;2024-01-10T10:38:39;9.68;;;3.17;;
81651;SDS011;71061;55.714;37.794;2024-01-10T10:41:05;8.70;;;3.47;;
81651;SDS011;71061;55.714;37.794;2024-01-10T10:43:39;6.57;;;2.72;;
81651;SDS011;71061;55.714;37.794;2024-01-10T10:46:06;9.48;;;2.97;;
81651;SDS011;71061;55.714;37.794;2024-01-10T10:48:35;7.88;;;2.67;;
81651;SDS011;71061;55.714;37.794;2024-01-10T10:53:42;7.68;;;3.85;;
81651;SDS011;71061;55.714;37.794;2024-01-10T10:56:10;6.93;;;2.60;;
81651;SDS011;71061;55.714;37.794;2024-01-10T10:58:38;6.28;;;2.85;;
81651;SDS011;71061;55.714;37.794;2024-01-10T11:01:06;8.52;;;3.45;;
81651;SDS011;71061;55.714;37.794;2024-01-10T11:03:34;7.22;;;2.85;;
81651;SDS011;71061;55.714;37.794;2024-01-10T11:06:02;12.07;;;3.60;;
81651;SDS011;71061;55.714;37.794;2024-01-10T11:08:29;8.30;;;2.92;;
81651;SDS011;71061;55.714;37.794;2024-01-10T11:10:58;9.00;;;3.30;;
81651;SDS011;71061;55.714;37.794;2024-01-10T11:21:36;11.98;;;5.53;;
81651;SDS011;71061;55.714;37.794;2024-01-10T11:24:14;9.07;;;4.85;;
81651;SDS011;71061;55.714;37.794;2024-01-10T11:26:40;10.85;;;4.35;;
81651;SDS011;71061;55.714;37.794;2024-01-10T11:29:05;12.43;;;4.47;;
81651;SDS011;71061;55.714;37.794;2024-01-10T11:31:32;10.88;;;6.53;;
81651;SDS011;71061;55.714;37.794;2024-01-10T11:33:59;13.63;;;5.30;;
81651;SDS011;71061;55.714;37.794;2024-01-10T11:36:26;10.93;;;5.80;;
81651;SDS011;71061;55.714;37.794;2024-01-10T11:46:52;12.70;;;6.10;;
81651;SDS011;71061;55.714;37.794;2024-01-10T11:49:19;9.30;;;5.78;;
81651;SDS011;71061;55.714;37.794;2024-01-10T11:51:47;10.90;;;5.47;;
81651;SDS011;71061;55.714;37.794;2024-01-10T11:57:01;9.05;;;5.28;;
81651;SDS011;71061;55.714;37.794;2024-01-10T11:59:27;13.55;;;5.72;;
81651;SDS011;71061;55.714;37.794;2024-01-10T12:01:53;11.20;;;6.13;;
81651;SDS011;71061;55.714;37.794;2024-01-10T12:04:19;11.65;;;5.00;;
81651;SDS011;71061;55.714;37.794;2024-01-10T12:06:47;13.18;;;6.85;;
81651;SDS011;71061;55.714;37.794;2024-01-10T12:09:13;11.95;;;5.22;;
81651;SDS011;71061;55.714;37.794;2024-01-10T12:11:40;14.70;;;6.70;;
81651;SDS011;71061;55.714;37.794;2024-01-10T12:14:08;12.77;;;4.75;;
81651;SDS011;71061;55.714;37.794;2024-01-10T12:16:34;11.52;;;6.55;;
81651;SDS011;71061;55.714;37.794;2024-01-10T12:19:00;12.82;;;5.45;;
81651;SDS011;71061;55.714;37.794;2024-01-10T12:21:26;13.23;;;6.45;;
81651;SDS011;71061;55.714;37.794;2024-01-10T12:23:51;13.57;;;5.22;;
81651;SDS011;71061;55.714;37.794;2024-01-10T12:26:17;10.07;;;5.28;;
81651;SDS011;71061;55.714;37.794;2024-01-10T12:28:59;13.32;;;6.32;;
81651;SDS011;71061;55.714;37.794;2024-01-10T12:31:27;15.27;;;5.55;;
81651;SDS011;71061;55.714;37.794;2024-01-10T12:33:55;10.57;;;5.75;;
81651;SDS011;71061;55.714;37.794;2024-01-10T12:36:21;10.65;;;5.50;;
81651;SDS011;71061;55.714;37.794;2024-01-10T12:38:47;10.13;;;5.15;;
81651;SDS011;71061;55.714;37.794;2024-01-10T12:41:14;13.18;;;5.40;;
81651;SDS011;71061;55.714;37.794;2024-01-10T12:43:41;10.98;;;4.97;;
81651;SDS011;71061;55.714;37.794;2024-01-10T12:46:07;13.15;;;6.75;;
81651;SDS011;71061;55.714;37.794;2024-01-10T12:48:36;11.65;;;5.35;;
81651;SDS011;71061;55.714;37.794;2024-01-10T12:51:08;11.93;;;4.85;;
81651;SDS011;71061;55.714;37.794;2024-01-10T12:53:35;11.43;;;5.93;;
81651;SDS011;71061;55.714;37.794;2024-01-10T12:56:04;25.77;;;11.82;;
81651;SDS011;71061;55.714;37.794;2024-01-10T12:58:30;15.45;;;9.07;;
81651;SDS011;71061;55.714;37.794;2024-01-10T13:00:57;15.15;;;7.50;;
81651;SDS011;71061;55.714;37.794;2024-01-10T13:03:23;14.95;;;7.80;;
81651;SDS011;71061;55.714;37.794;2024-01-10T13:05:49;12.02;;;6.63;;
81651;SDS011;71061;55.714;37.794;2024-01-10T13:08:15;9.27;;;4.30;;
81651;SDS011;71061;55.714;37.794;2024-01-10T13:10:41;12.48;;;5.38;;
81651;SDS011;71061;55.714;37.794;2024-01-10T13:13:07;11.18;;;5.95;;
81651;SDS011;71061;55.714;37.794;2024-01-10T13:15:34;11.43;;;6.25;;
81651;SDS011;71061;55.714;37.794;2024-01-10T13:17:59;11.55;;;5.53;;
81651;SDS011;71061;55.714;37.794;2024-01-10T13:20:25;13.27;;;6.80;;
81651;SDS011;71061;55.714;37.794;2024-01-10T13:22:51;10.13;;;6.75;;
81651;SDS011;71061;55.714;37.794;2024-01-10T13:25:17;14.55;;;5.97;;
81651;SDS011;71061;55.714;37.794;2024-01-10T13:27:44;14.80;;;6.03;;
81651;SDS011;71061;55.714;37.794;2024-01-10T13:30:11;10.18;;;5.60;;
81651;SDS011;71061;55.714;37.794;2024-01-10T13:32:37;12.40;;;6.55;;
81651;SDS011;71061;55.714;37.794;2024-01-10T13:35:03;11.20;;;6.47;;
81651;SDS011;71061;55.714;37.794;2024-01-10T13:37:29;12.10;;;6.05;;
81651;SDS011;71061;55.714;37.794;2024-01-10T13:39:56;11.13;;;6.35;;
81651;SDS011;71061;55.714;37.794;2024-01-10T13:42:22;11.05;;;5.40;;
81651;SDS011;71061;55.714;37.794;2024-01-10T13:44:49;10.73;;;5.10;;
81651;SDS011;71061;55.714;37.794;2024-01-10T13:47:17;11.68;;;5.50;;
81651;SDS011;71061;55.714;37.794;2024-01-10T13:49:43;13.80;;;6.45;;
81651;SDS011;71061;55.714;37.794;2024-01-10T13:52:08;12.85;;;5.97;;
81651;SDS011;71061;55.714;37.794;2024-01-10T13:54:34;10.02;;;5.00;;
81651;SDS011;71061;55.714;37.794;2024-01-10T13:57:02;10.10;;;5.10;;
81651;SDS011;71061;55.714;37.794;2024-01-10T13:59:28;11.23;;;6.40;;
81651;SDS011;71061;55.714;37.794;2024-01-10T14:01:54;8.60;;;5.55;;
81651;SDS011;71061;55.714;37.794;2024-01-10T14:04:20;10.07;;;5.07;;
81651;SDS011;71061;55.714;37.794;2024-01-10T14:06:47;9.63;;;4.90;;
81651;SDS011;71061;55.714;37.794;2024-01-10T14:09:14;8.93;;;4.85;;
81651;SDS011;71061;55.714;37.794;2024-01-10T14:11:40;12.95;;;6.28;;
81651;SDS011;71061;55.714;37.794;2024-01-10T14:14:05;9.68;;;5.80;;
81651;SDS011;71061;55.714;37.794;2024-01-10T14:16:31;14.30;;;6.28;;
81651;SDS011;71061;55.714;37.794;2024-01-10T14:18:57;9.95;;;7.07;;
81651;SDS011;71061;55.714;37.794;2024-01-10T14:21:23;10.63;;;5.68;;
81651;SDS011;71061;55.714;37.794;2024-01-10T14:23:48;10.30;;;5.15;;
81651;SDS011;71061;55.714;37.794;2024-01-10T14:26:14;9.07;;;5.60;;
81651;SDS011;71061;55.714;37.794;2024-01-10T14:28:41;9.13;;;5.30;;
81651;SDS011;71061;55.714;37.794;2024-01-10T14:31:06;9.35;;;5.55;;
81651;SDS011;71061;55.714;37.794;2024-01-10T14:33:32;11.20;;;5.35;;
81651;SDS011;71061;55.714;37.794;2024-01-10T14:35:59;9.38;;;4.68;;
81651;SDS011;71061;55.714;37.794;2024-01-10T14:38:25;8.93;;;5.05;;
81651;SDS011;71061;55.714;37.794;2024-01-10T14:40:51;12.23;;;4.78;;
81651;SDS011;71061;55.714;37.794;2024-01-10T14:43:17;10.25;;;5.65;;
81651;SDS011;71061;55.714;37.794;2024-01-10T14:45:43;11.43;;;5.93;;
81651;SDS011;71061;55.714;37.794;2024-01-10T14:48:09;11.52;;;6.03;;